createdAt,value
2023-03-15T00:01:08.359Z,100.00
2023-03-15T00:03:39.973Z,100.00
2023-03-15T00:06:07.218Z,100.00
2023-03-15T00:08:34.024Z,100.00
2023-03-15T00:11:01.397Z,100.00
2023-03-15T00:13:27.999Z,100.00
2023-03-15T00:15:59.228Z,100.00
2023-03-15T00:18:26.974Z,100.00
2023-03-15T00:20:53.527Z,100.00
2023-03-15T00:23:20.072Z,100.00
2023-03-15T00:25:48.288Z,100.00
2023-03-15T00:28:15.257Z,100.00
2023-03-15T00:30:42.148Z,100.00
2023-03-15T00:33:09.485Z,100.00
2023-03-15T00:35:39.520Z,100.00
2023-03-15T00:38:06.805Z,100.00
2023-03-15T00:40:33.526Z,100.00
2023-03-15T00:43:00.111Z,100.00
2023-03-15T00:45:26.676Z,100.00
2023-03-15T00:47:54.534Z,100.00
2023-03-15T00:50:22.734Z,100.00
2023-03-15T00:52:49.429Z,100.00
2023-03-15T00:55:18.610Z,100.00
2023-03-15T00:57:46.484Z,100.00
2023-03-15T01:00:17.189Z,100.00
2023-03-15T01:02:44.122Z,100.00
2023-03-15T01:05:10.901Z,100.00
2023-03-15T01:07:37.692Z,100.00
2023-03-15T01:10:06.324Z,100.00
2023-03-15T01:12:34.634Z,100.00
2023-03-15T01:15:03.762Z,100.00
2023-03-15T01:17:30.587Z,100.00
2023-03-15T01:20:00.822Z,100.00
2023-03-15T01:22:27.710Z,100.00
2023-03-15T01:24:54.417Z,100.00
2023-03-15T01:27:21.343Z,100.00
2023-03-15T01:29:48.079Z,100.00
2023-03-15T01:32:15.038Z,100.00
2023-03-15T01:34:43.392Z,100.00
2023-03-15T01:37:14.761Z,100.00
2023-03-15T01:39:42.643Z,100.00
2023-03-15T01:42:10.796Z,100.00
2023-03-15T01:45:01.688Z,100.00
2023-03-15T01:47:28.976Z,100.00
2023-03-15T01:50:05.955Z,100.00
2023-03-15T01:52:36.573Z,100.00
2023-03-15T01:55:14.822Z,100.00
2023-03-15T01:57:57.255Z,100.00
2023-03-15T02:00:24.207Z,100.00
2023-03-15T02:03:00.221Z,100.00
2023-03-15T02:05:35.882Z,100.00
2023-03-15T02:08:04.997Z,100.00
2023-03-15T02:10:37.260Z,100.00
2023-03-15T02:13:05.196Z,100.00
2023-03-15T02:15:32.428Z,100.00
2023-03-15T02:17:59.019Z,100.00
2023-03-15T02:20:39.178Z,100.00
2023-03-15T02:23:09.511Z,100.00
2023-03-15T02:26:02.239Z,100.00
2023-03-15T02:28:29.708Z,100.00
2023-03-15T02:30:57.066Z,100.00
2023-03-15T02:33:23.565Z,100.00
2023-03-15T02:35:51.413Z,100.00
2023-03-15T02:38:18.447Z,100.00
2023-03-15T02:40:46.527Z,100.00
2023-03-15T02:43:24.793Z,100.00
2023-03-15T02:45:51.830Z,100.00
2023-03-15T02:48:19.110Z,100.00
2023-03-15T02:50:45.782Z,100.00
2023-03-15T02:53:12.475Z,100.00
2023-03-15T02:55:39.254Z,100.00
2023-03-15T02:58:05.786Z,100.00
2023-03-15T03:00:32.534Z,100.00
2023-03-15T03:02:59.513Z,100.00
2023-03-15T03:05:26.216Z,100.00
2023-03-15T03:07:52.779Z,100.00
2023-03-15T03:10:20.418Z,100.00
2023-03-15T03:12:47.295Z,100.00
2023-03-15T03:15:13.834Z,100.00
2023-03-15T03:17:40.389Z,100.00
2023-03-15T03:20:09.921Z,100.00
2023-03-15T03:22:37.650Z,100.00
2023-03-15T03:25:07.620Z,100.00
2023-03-15T03:27:36.822Z,100.00
2023-03-15T03:30:05.172Z,100.00
2023-03-15T03:32:32.026Z,100.00
2023-03-15T03:34:58.532Z,100.00
2023-03-15T03:37:25.709Z,100.00
2023-03-15T03:39:52.501Z,100.00
2023-03-15T03:42:18.984Z,100.00
2023-03-15T03:44:45.528Z,100.00
2023-03-15T03:47:12.028Z,100.00
2023-03-15T03:49:38.533Z,100.00
2023-03-15T03:52:05.358Z,100.00
2023-03-15T03:54:32.209Z,100.00
2023-03-15T03:56:59.042Z,100.00
2023-03-15T03:59:25.584Z,100.00
2023-03-15T04:01:52.396Z,100.00
2023-03-15T04:04:18.943Z,100.00
2023-03-15T04:06:46.085Z,100.00
2023-03-15T04:09:14.053Z,100.00
2023-03-15T04:11:44.551Z,100.00
2023-03-15T04:14:12.486Z,100.00
2023-03-15T04:16:39.297Z,100.00
2023-03-15T04:19:07.359Z,100.00
2023-03-15T04:21:34.329Z,100.00
2023-03-15T04:24:02.130Z,100.00
2023-03-15T04:29:00.991Z,100.00
2023-03-15T04:31:27.669Z,100.00
2023-03-15T04:33:54.877Z,100.00
2023-03-15T04:36:24.534Z,100.00
2023-03-15T04:38:51.078Z,100.00
2023-03-15T04:41:18.506Z,100.00
2023-03-15T04:43:45.508Z,100.00
2023-03-15T04:46:12.430Z,100.00
2023-03-15T04:48:39.021Z,100.00
2023-03-15T04:51:07.967Z,100.00
2023-03-15T04:53:34.489Z,100.00
2023-03-15T04:56:03.029Z,100.00
2023-03-15T04:58:31.166Z,100.00
2023-03-15T05:00:57.854Z,100.00
2023-03-15T05:03:24.379Z,100.00
2023-03-15T05:05:50.941Z,100.00
2023-03-15T05:08:17.451Z,100.00
2023-03-15T05:10:44.236Z,100.00
2023-03-15T05:13:10.796Z,100.00
2023-03-15T05:15:37.348Z,100.00
2023-03-15T05:18:04.171Z,100.00
2023-03-15T05:20:30.811Z,100.00
2023-03-15T05:22:57.536Z,100.00
2023-03-15T05:25:24.563Z,100.00
2023-03-15T05:27:51.212Z,100.00
2023-03-15T05:30:17.879Z,100.00
2023-03-15T05:32:44.973Z,100.00
2023-03-15T05:35:13.029Z,100.00
2023-03-15T05:37:39.715Z,100.00
2023-03-15T05:40:08.321Z,100.00
2023-03-15T05:42:35.460Z,100.00
2023-03-15T05:45:02.319Z,100.00
2023-03-15T05:47:28.920Z,100.00
2023-03-15T05:49:55.522Z,100.00
2023-03-15T05:52:21.991Z,100.00
2023-03-15T05:54:48.457Z,100.00
2023-03-15T05:57:15.074Z,100.00
2023-03-15T05:59:41.666Z,100.00
2023-03-15T06:02:08.187Z,100.00
2023-03-15T06:04:34.893Z,100.00
2023-03-15T06:07:01.461Z,100.00
2023-03-15T06:09:28.059Z,100.00
2023-03-15T06:11:55.005Z,100.00
2023-03-15T06:14:21.667Z,100.00
2023-03-15T06:16:48.189Z,100.00
2023-03-15T06:19:14.720Z,100.00
2023-03-15T06:21:41.216Z,100.00
2023-03-15T06:24:08.036Z,100.00
2023-03-15T06:26:34.621Z,100.00
2023-03-15T06:29:01.117Z,100.00
2023-03-15T06:31:27.648Z,100.00
2023-03-15T06:33:54.279Z,100.00
2023-03-15T06:36:20.744Z,100.00
2023-03-15T06:38:47.232Z,100.00
2023-03-15T06:41:15.760Z,100.00
2023-03-15T06:43:42.595Z,100.00
2023-03-15T06:46:09.150Z,97.87
2023-03-15T06:48:35.703Z,93.63
2023-03-15T06:51:04.144Z,91.52
2023-03-15T06:53:30.927Z,89.25
2023-03-15T06:55:57.515Z,84.57
2023-03-15T06:58:24.075Z,81.54
2023-03-15T07:00:50.629Z,80.65
2023-03-15T07:03:17.202Z,75.78
2023-03-15T07:05:44.405Z,80.56
2023-03-15T07:08:10.937Z,80.08
2023-03-15T07:10:37.437Z,80.13
2023-03-15T07:13:05.545Z,80.14
2023-03-15T07:15:32.032Z,78.32
2023-03-15T07:17:58.542Z,70.84
2023-03-15T07:20:24.997Z,72.17
2023-03-15T07:22:51.536Z,69.96
2023-03-15T07:25:23.890Z,64.37
2023-03-15T07:27:51.163Z,60.78
2023-03-15T07:30:18.219Z,60.99
2023-03-15T07:32:44.850Z,62.13
2023-03-15T07:35:13.472Z,63.38
2023-03-15T07:37:44.320Z,59.06
2023-03-15T07:40:12.657Z,57.09
2023-03-15T07:42:40.322Z,55.62
2023-03-15T07:45:08.162Z,55.78
2023-03-15T07:47:34.770Z,52.38
2023-03-15T07:50:01.559Z,50.82
2023-03-15T07:52:28.153Z,49.58
2023-03-15T07:54:54.648Z,55.28
2023-03-15T07:57:21.187Z,54.75
2023-03-15T07:59:47.762Z,52.79
2023-03-15T08:02:14.890Z,53.08
2023-03-15T08:04:41.514Z,55.82
2023-03-15T08:07:08.172Z,60.99
2023-03-15T08:09:34.899Z,61.88
2023-03-15T08:12:02.119Z,65.06
2023-03-15T08:14:29.319Z,61.94
2023-03-15T08:16:55.785Z,63.30
2023-03-15T08:19:22.342Z,65.89
2023-03-15T08:21:48.887Z,65.89
2023-03-15T08:24:15.720Z,66.41
2023-03-15T08:26:44.934Z,66.15
2023-03-15T08:29:11.536Z,65.12
2023-03-15T08:31:38.282Z,67.06
2023-03-15T08:34:04.886Z,62.33
2023-03-15T08:36:32.726Z,63.23
2023-03-15T08:38:59.369Z,63.51
2023-03-15T08:41:25.886Z,63.82
2023-03-15T08:43:52.538Z,64.74
2023-03-15T08:46:22.063Z,64.22
2023-03-15T08:48:48.666Z,61.65
2023-03-15T08:51:15.178Z,62.51
2023-03-15T08:53:41.752Z,63.15
2023-03-15T08:56:09.361Z,66.45
2023-03-15T08:58:36.044Z,67.82
2023-03-15T09:01:02.785Z,66.95
2023-03-15T09:03:29.321Z,67.07
2023-03-15T09:05:57.755Z,65.96
2023-03-15T09:08:25.313Z,66.38
2023-03-15T09:10:56.378Z,64.14
2023-03-15T09:13:23.499Z,63.82
2023-03-15T09:15:52.551Z,65.67
2023-03-15T09:18:20.106Z,64.23
2023-03-15T09:20:47.181Z,64.69
2023-03-15T09:23:14.259Z,63.22
2023-03-15T09:25:41.092Z,62.00
2023-03-15T09:28:12.389Z,63.21
2023-03-15T09:30:40.883Z,61.84
2023-03-15T09:33:08.043Z,61.33
2023-03-15T09:35:34.779Z,61.35
2023-03-15T09:38:03.963Z,63.29
2023-03-15T09:40:42.463Z,62.22
2023-03-15T09:43:08.984Z,62.95
2023-03-15T09:46:11.055Z,61.24
2023-03-15T09:48:49.753Z,60.96
2023-03-15T09:51:30.604Z,62.10
2023-03-15T09:54:04.447Z,59.88
2023-03-15T09:56:45.745Z,56.92
2023-03-15T09:59:15.950Z,57.38
2023-03-15T10:01:44.191Z,57.37
2023-03-15T10:04:18.772Z,54.61
2023-03-15T10:06:51.886Z,53.27
2023-03-15T10:09:22.378Z,55.25
2023-03-15T10:12:04.432Z,53.60
2023-03-15T10:14:37.467Z,53.12
2023-03-15T10:17:11.371Z,53.95
2023-03-15T10:19:51.052Z,53.60
2023-03-15T10:22:34.032Z,52.57
2023-03-15T10:25:19.327Z,49.74
2023-03-15T10:28:34.900Z,49.47
2023-03-15T10:31:22.400Z,47.06
2023-03-15T10:33:53.497Z,44.94
2023-03-15T10:36:22.884Z,42.72
2023-03-15T10:38:50.506Z,42.49
2023-03-15T10:41:37.795Z,41.83
2023-03-15T10:44:07.458Z,42.69
2023-03-15T10:46:35.719Z,44.56
2023-03-15T10:49:20.777Z,41.86
2023-03-15T10:51:48.819Z,41.81
2023-03-15T10:54:25.074Z,41.30
2023-03-15T10:56:59.848Z,41.49
2023-03-15T10:59:29.173Z,43.04
2023-03-15T11:02:08.036Z,42.76
2023-03-15T11:04:34.622Z,43.03
2023-03-15T11:07:03.845Z,44.48
2023-03-15T11:09:45.113Z,46.70
2023-03-15T11:12:33.494Z,49.78
2023-03-15T11:15:14.067Z,50.66
2023-03-15T11:17:47.446Z,48.75
2023-03-15T11:20:30.631Z,46.92
2023-03-15T11:22:58.536Z,44.13
2023-03-15T11:25:33.011Z,43.41
2023-03-15T11:28:01.488Z,44.42
2023-03-15T11:30:31.434Z,46.69
2023-03-15T11:33:08.060Z,45.85
2023-03-15T11:35:49.692Z,45.90
2023-03-15T11:38:25.168Z,46.79
2023-03-15T11:40:56.788Z,46.97
2023-03-15T11:43:28.158Z,47.61
2023-03-15T11:46:09.616Z,49.47
2023-03-15T11:48:43.827Z,51.39
2023-03-15T11:51:12.154Z,53.66
2023-03-15T11:53:50.579Z,54.00
2023-03-15T11:56:44.275Z,53.44
2023-03-15T11:59:24.731Z,53.02
2023-03-15T12:02:28.553Z,51.19
2023-03-15T12:04:57.228Z,50.15
2023-03-15T12:07:31.164Z,50.75
2023-03-15T12:10:03.624Z,52.21
2023-03-15T12:12:30.376Z,51.34
2023-03-15T12:15:07.094Z,50.67
2023-03-15T12:17:44.839Z,50.78
2023-03-15T12:20:12.059Z,50.31
2023-03-15T12:22:43.460Z,50.41
2023-03-15T12:25:19.482Z,49.51
2023-03-15T12:27:52.756Z,48.31
2023-03-15T12:30:41.360Z,49.71
2023-03-15T12:33:21.026Z,49.38
2023-03-15T12:35:49.442Z,50.89
2023-03-15T12:38:22.663Z,50.15
2023-03-15T12:40:58.848Z,50.09
2023-03-15T12:43:39.465Z,50.32
2023-03-15T12:46:06.613Z,50.67
2023-03-15T12:48:33.633Z,51.11
2023-03-15T12:51:04.055Z,51.35
2023-03-15T12:53:40.145Z,51.22
2023-03-15T12:56:18.877Z,52.27
2023-03-15T12:58:53.201Z,52.45
2023-03-15T13:01:19.954Z,50.41
2023-03-15T13:03:46.521Z,49.78
2023-03-15T13:06:40.473Z,50.72
2023-03-15T13:09:42.139Z,52.04
2023-03-15T13:12:16.306Z,53.34
2023-03-15T13:14:56.632Z,52.61
2023-03-15T13:17:48.951Z,52.03
2023-03-15T13:20:56.804Z,50.30
2023-03-15T13:23:29.130Z,51.08
2023-03-15T13:26:12.388Z,52.38
2023-03-15T13:28:40.258Z,50.40
2023-03-15T13:31:33.498Z,49.83
2023-03-15T13:34:22.165Z,50.01
2023-03-15T13:36:54.990Z,49.42
2023-03-15T13:39:24.344Z,49.64
2023-03-15T13:41:57.862Z,50.78
2023-03-15T13:44:25.682Z,50.94
2023-03-15T13:46:53.389Z,50.83
2023-03-15T13:49:21.148Z,51.99
2023-03-15T13:51:50.582Z,54.03
2023-03-15T13:54:23.556Z,55.09
2023-03-15T13:57:08.959Z,56.74
2023-03-15T13:59:50.025Z,56.94
2023-03-15T14:02:21.189Z,58.33
2023-03-15T14:04:52.756Z,58.61
2023-03-15T14:07:27.693Z,58.83
2023-03-15T14:10:09.317Z,58.78
2023-03-15T14:12:35.885Z,59.73
2023-03-15T14:15:02.432Z,60.41
2023-03-15T14:17:31.301Z,59.86
2023-03-15T14:20:14.752Z,59.79
2023-03-15T14:22:42.566Z,61.03
2023-03-15T14:25:22.529Z,60.88
2023-03-15T14:27:49.156Z,61.21
2023-03-15T14:30:24.902Z,61.48
2023-03-15T14:32:57.725Z,62.75
2023-03-15T14:35:43.601Z,63.59
2023-03-15T14:38:23.496Z,63.96
2023-03-15T14:40:51.842Z,64.88
2023-03-15T14:43:18.595Z,69.94
2023-03-15T14:45:47.924Z,72.97
2023-03-15T14:48:32.014Z,76.24
2023-03-15T14:50:58.645Z,79.28
2023-03-15T14:53:29.388Z,81.47
2023-03-15T14:55:55.928Z,82.52
2023-03-15T14:58:23.187Z,84.06
2023-03-15T15:00:53.467Z,84.92
2023-03-15T15:03:34.299Z,85.32
2023-03-15T15:06:02.148Z,87.19
2023-03-15T15:08:28.906Z,87.84
2023-03-15T15:10:56.982Z,87.76
2023-03-15T15:13:28.527Z,89.17
2023-03-15T15:15:57.102Z,89.76
2023-03-15T15:18:25.516Z,91.63
2023-03-15T15:20:55.628Z,94.64
2023-03-15T15:23:28.162Z,97.27
2023-03-15T15:25:58.629Z,97.86
2023-03-15T15:28:34.577Z,99.26
2023-03-15T15:31:03.803Z,99.31
2023-03-15T15:33:30.465Z,99.96
2023-03-15T15:35:57.999Z,98.83
2023-03-15T15:38:30.948Z,97.45
2023-03-15T15:40:57.712Z,98.90
2023-03-15T15:43:25.015Z,100.00
2023-03-15T15:45:51.619Z,97.34
2023-03-15T15:48:18.146Z,95.99
2023-03-15T15:50:44.695Z,96.46
2023-03-15T15:53:17.208Z,97.38
2023-03-15T15:55:45.917Z,95.74
2023-03-15T15:58:13.919Z,93.61
2023-03-15T16:00:40.579Z,82.52
2023-03-15T16:03:15.969Z,78.85
2023-03-15T16:05:43.136Z,77.59
2023-03-15T16:08:22.675Z,76.43
2023-03-15T16:10:49.346Z,76.78
2023-03-15T16:13:16.175Z,77.85
2023-03-15T16:15:42.841Z,78.87
2023-03-15T16:18:11.085Z,79.31
2023-03-15T16:20:39.637Z,81.17
2023-03-15T16:23:06.412Z,82.95
2023-03-15T16:25:36.554Z,83.43
2023-03-15T16:28:04.515Z,84.57
2023-03-15T16:30:32.310Z,86.29
2023-03-15T16:32:58.884Z,87.00
2023-03-15T16:35:34.990Z,88.31
2023-03-15T16:38:01.946Z,89.24
2023-03-15T16:40:36.123Z,90.63
2023-03-15T16:43:03.163Z,91.57
2023-03-15T16:45:29.734Z,93.38
2023-03-15T16:47:56.724Z,94.64
2023-03-15T16:50:23.516Z,95.21
2023-03-15T16:52:53.141Z,96.84
2023-03-15T16:55:25.984Z,97.73
2023-03-15T16:57:52.715Z,99.06
2023-03-15T17:00:20.722Z,100.00
2023-03-15T17:02:52.264Z,100.00
2023-03-15T17:05:20.991Z,100.00
2023-03-15T17:07:49.096Z,100.00
2023-03-15T17:10:25.210Z,100.00
2023-03-15T17:12:53.164Z,100.00
2023-03-15T17:15:22.288Z,100.00
2023-03-15T17:17:49.179Z,100.00
2023-03-15T17:20:21.908Z,100.00
2023-03-15T17:22:49.848Z,100.00
2023-03-15T17:25:17.127Z,100.00
2023-03-15T17:27:47.025Z,100.00
2023-03-15T17:30:32.000Z,100.00
2023-03-15T17:32:59.069Z,100.00
2023-03-15T17:35:32.166Z,100.00
2023-03-15T17:37:58.799Z,100.00
2023-03-15T17:40:25.370Z,100.00
2023-03-15T17:42:54.294Z,100.00
2023-03-15T17:45:23.490Z,100.00
2023-03-15T17:47:50.642Z,100.00
2023-03-15T17:50:19.136Z,100.00
2023-03-15T17:52:48.484Z,100.00
2023-03-15T17:55:19.986Z,100.00
2023-03-15T17:57:54.705Z,100.00
2023-03-15T18:00:23.568Z,100.00
2023-03-15T18:02:55.728Z,100.00
2023-03-15T18:05:25.521Z,100.00
2023-03-15T18:08:00.367Z,100.00
2023-03-15T18:10:34.349Z,100.00
2023-03-15T18:13:01.290Z,100.00
2023-03-15T18:15:27.953Z,100.00
2023-03-15T18:17:54.530Z,100.00
2023-03-15T18:20:24.317Z,100.00
2023-03-15T18:22:51.000Z,100.00
2023-03-15T18:25:21.536Z,100.00
2023-03-15T18:27:49.219Z,100.00
2023-03-15T18:30:19.160Z,100.00
2023-03-15T18:32:46.886Z,100.00
2023-03-15T18:35:20.406Z,100.00
2023-03-15T18:37:46.942Z,100.00
2023-03-15T18:40:16.175Z,100.00
2023-03-15T18:42:43.538Z,100.00
2023-03-15T18:45:18.166Z,100.00
2023-03-15T18:47:45.293Z,100.00
2023-03-15T18:50:12.747Z,100.00
2023-03-15T18:52:39.872Z,100.00
2023-03-15T18:55:07.953Z,100.00
2023-03-15T18:57:35.464Z,100.00
2023-03-15T19:00:02.456Z,100.00
2023-03-15T19:02:29.044Z,100.00
2023-03-15T19:04:58.998Z,100.00
2023-03-15T19:07:26.244Z,100.00
2023-03-15T19:09:52.740Z,100.00
2023-03-15T19:12:19.296Z,100.00
2023-03-15T19:14:45.786Z,100.00
2023-03-15T19:17:12.424Z,100.00
2023-03-15T19:19:39.037Z,100.00
2023-03-15T19:22:05.568Z,100.00
2023-03-15T19:24:33.280Z,100.00
2023-03-15T19:27:00.498Z,100.00
2023-03-15T19:29:26.976Z,100.00
2023-03-15T19:31:53.510Z,100.00
2023-03-15T19:34:20.009Z,100.00
2023-03-15T19:36:46.553Z,100.00
2023-03-15T19:39:13.937Z,100.00
2023-03-15T19:41:41.383Z,100.00
2023-03-15T19:44:08.005Z,100.00
2023-03-15T19:46:34.516Z,100.00
2023-03-15T19:49:02.495Z,100.00
2023-03-15T19:51:29.399Z,100.00
2023-03-15T19:53:56.642Z,100.00
2023-03-15T19:56:23.293Z,100.00
2023-03-15T19:58:49.917Z,100.00
2023-03-15T20:01:16.565Z,100.00
2023-03-15T20:03:43.203Z,100.00
2023-03-15T20:06:14.936Z,100.00
2023-03-15T20:08:42.820Z,100.00
2023-03-15T20:11:12.179Z,100.00
2023-03-15T20:13:38.670Z,100.00
2023-03-15T20:16:05.999Z,100.00
2023-03-15T20:18:32.664Z,100.00
2023-03-15T20:20:59.194Z,100.00
2023-03-15T20:23:25.889Z,100.00
2023-03-15T20:25:52.443Z,100.00
2023-03-15T20:28:19.202Z,100.00
2023-03-15T20:30:45.756Z,100.00
2023-03-15T20:33:12.294Z,100.00
2023-03-15T20:35:38.830Z,100.00
2023-03-15T20:38:08.351Z,100.00
2023-03-15T20:40:38.573Z,100.00
2023-03-15T20:43:05.946Z,100.00
2023-03-15T20:45:33.478Z,100.00
2023-03-15T20:48:01.047Z,100.00
2023-03-15T20:50:27.587Z,100.00
2023-03-15T20:52:54.072Z,100.00
2023-03-15T20:55:21.232Z,100.00
2023-03-15T20:57:47.753Z,100.00
2023-03-15T21:00:18.447Z,100.00
2023-03-15T21:02:49.356Z,100.00
2023-03-15T21:05:16.727Z,100.00
2023-03-15T21:07:44.092Z,100.00
2023-03-15T21:10:13.775Z,100.00
2023-03-15T21:12:40.323Z,100.00
2023-03-15T21:15:07.361Z,100.00
2023-03-15T21:17:34.690Z,100.00
2023-03-15T21:20:01.224Z,100.00
2023-03-15T21:22:27.908Z,100.00
2023-03-15T21:24:56.230Z,100.00
2023-03-15T21:27:26.242Z,100.00
2023-03-15T21:29:53.388Z,100.00
2023-03-15T21:32:20.110Z,100.00
2023-03-15T21:34:46.766Z,100.00
2023-03-15T21:37:13.307Z,100.00
2023-03-15T21:39:39.810Z,100.00
2023-03-15T21:42:06.374Z,100.00
2023-03-15T21:44:37.434Z,100.00
2023-03-15T21:47:06.854Z,100.00
2023-03-15T21:49:33.372Z,100.00
2023-03-15T21:52:00.384Z,100.00
2023-03-15T21:54:27.219Z,100.00
2023-03-15T21:56:53.798Z,100.00
2023-03-15T21:59:27.738Z,100.00
2023-03-15T22:01:55.673Z,100.00
2023-03-15T22:04:24.591Z,100.00
2023-03-15T22:06:54.629Z,100.00
2023-03-15T22:09:23.354Z,100.00
2023-03-15T22:11:50.145Z,100.00
2023-03-15T22:14:16.643Z,100.00
2023-03-15T22:16:43.388Z,100.00
2023-03-15T22:19:10.174Z,100.00
2023-03-15T22:21:36.706Z,100.00
2023-03-15T22:24:03.312Z,100.00
2023-03-15T22:26:29.820Z,100.00
2023-03-15T22:28:56.303Z,100.00
2023-03-15T22:31:22.978Z,100.00
2023-03-15T22:33:49.762Z,100.00
2023-03-15T22:36:17.249Z,100.00
2023-03-15T22:38:50.287Z,100.00
2023-03-15T22:41:19.389Z,100.00
2023-03-15T22:43:46.033Z,100.00
2023-03-15T22:46:13.020Z,100.00
2023-03-15T22:48:39.597Z,100.00
2023-03-15T22:51:08.490Z,100.00
2023-03-15T22:53:35.219Z,100.00
2023-03-15T22:56:01.816Z,100.00
2023-03-15T22:58:28.502Z,100.00
2023-03-15T23:00:55.269Z,100.00
2023-03-15T23:03:22.051Z,100.00
2023-03-15T23:05:48.582Z,100.00
2023-03-15T23:08:15.262Z,100.00
2023-03-15T23:10:42.255Z,100.00
2023-03-15T23:13:09.065Z,100.00
2023-03-15T23:15:35.812Z,100.00
2023-03-15T23:18:02.374Z,100.00
2023-03-15T23:20:30.059Z,100.00
2023-03-15T23:22:57.234Z,100.00
2023-03-15T23:25:28.245Z,100.00
2023-03-15T23:27:55.657Z,100.00
2023-03-15T23:30:22.256Z,100.00
2023-03-15T23:32:51.011Z,100.00
2023-03-15T23:35:17.616Z,100.00
2023-03-15T23:37:44.144Z,100.00
2023-03-15T23:40:15.720Z,100.00
2023-03-15T23:42:43.813Z,100.00
2023-03-15T23:45:12.274Z,100.00
2023-03-15T23:47:39.374Z,100.00
2023-03-15T23:50:06.688Z,100.00
2023-03-15T23:52:33.172Z,100.00
2023-03-15T23:54:59.851Z,100.00
2023-03-15T23:57:26.490Z,100.00
2023-03-15T23:59:53.697Z,100.00
